Time;durP1;ratioP1;P1;durP2;ratioP2;P2;SDS_P1;SDS_P2;PMS_P1;PMS_P2;Temp;Humidity;BMP_temperature;BMP_pressure;BME280_temperature;BME280_humidity;BME280_pressure;Samples;Min_cycle;Max_cycle;Signal;HPM_P1;HPM_P2
2022/07/26 00:02:09;;;;;;;;;;;;;;;25.48;59.52;100476.91;7399273;19;1735;-35
2022/07/26 00:04:42;;;;;;;;;;;;;;;25.45;59.42;100470.03;7402339;19;2021;-35
2022/07/26 00:07:11;;;;;;;;;;;;;;;25.42;59.02;100475.78;7408281;19;1779;-35
2022/07/26 00:09:49;;;;;;;;;;;;;;;25.39;58.85;100470.75;7407637;19;1715;-35
2022/07/26 00:12:18;;;;;;;;;;;;;;;25.38;59.27;100467.19;7407740;19;1826;-35
2022/07/26 00:14:49;;;;;;;;;;;;;;;25.42;59.44;100467.66;7408357;19;1772;-35
2022/07/26 00:17:18;;;;;;;;;;;;;;;25.45;59.23;100471.91;7407398;19;1912;-35
2022/07/26 00:19:49;;;;;;;;;;;;;;;25.46;59.29;100478.97;7407706;19;1678;-35
2022/07/26 00:25:12;;;;;;;;;;;;;;;25.40;59.33;100469.72;7405786;19;1881;-35
2022/07/26 00:27:42;;;;;;;;;;;;;;;25.42;59.19;100456.00;7407847;19;2022;-35
2022/07/26 00:30:13;;;;;;;;;;;;;;;25.47;59.43;100472.56;7407180;19;1883;-35
2022/07/26 00:33:03;;;;;;;;;;;;;;;25.43;59.07;100471.22;7407487;19;1849;-35
2022/07/26 00:35:33;;;;;;;;;;;;;;;25.38;59.18;100461.78;7407338;19;1944;-35
2022/07/26 00:38:03;;;;;;;;;;;;;;;25.37;58.87;100460.13;7406284;19;1792;-35
2022/07/26 00:40:37;;;;;;;;;;;;;;;25.34;59.08;100457.75;7407950;19;1687;-35
2022/07/26 00:43:27;;;;;;;;;;;;;;;25.33;59.00;100461.50;7407421;19;2028;-36
2022/07/26 00:45:55;;;;;;;;;;;;;;;25.40;58.87;100470.56;7404060;19;1878;-36
2022/07/26 00:48:31;;;;;;;;;;;;;;;25.35;58.89;100443.22;7407440;19;1814;-35
2022/07/26 00:51:05;;;;;;;;;;;;;;;25.38;58.98;100445.53;7406965;19;1755;-35
2022/07/26 00:53:38;;;;;;;;;;;;;;;25.35;58.94;100445.94;7407262;19;1796;-35
2022/07/26 00:56:13;;;;;;;;;;;;;;;25.39;58.85;100468.06;7406451;19;1947;-36
2022/07/26 00:58:46;;;;;;;;;;;;;;;25.43;58.86;100463.94;7406510;19;1825;-35
2022/07/26 01:01:16;;;;;;;;;;;;;;;25.43;58.78;100463.94;7405851;19;1851;-35
2022/07/26 01:03:46;;;;;;;;;;;;;;;25.36;58.45;100453.00;7406185;19;1837;-35
2022/07/26 01:06:36;;;;;;;;;;;;;;;25.34;58.52;100455.06;7404378;19;1894;-36
2022/07/26 01:09:05;;;;;;;;;;;;;;;25.33;58.72;100447.16;7405926;19;1755;-35
2022/07/26 01:11:37;;;;;;;;;;;;;;;25.34;58.80;100451.50;7405873;19;2084;-35
2022/07/26 01:14:06;;;;;;;;;;;;;;;25.32;58.59;100440.03;7405204;19;2049;-35
2022/07/26 01:16:35;;;;;;;;;;;;;;;25.30;58.55;100445.63;7404630;19;1955;-35
2022/07/26 01:19:03;;;;;;;;;;;;;;;25.29;58.84;100451.25;7406377;19;1771;-35
2022/07/26 01:21:39;;;;;;;;;;;;;;;25.27;58.59;100432.47;7405846;19;1961;-35
2022/07/26 01:24:09;;;;;;;;;;;;;;;25.27;58.65;100434.31;7405320;19;1865;-35
2022/07/26 01:26:41;;;;;;;;;;;;;;;25.33;58.77;100431.75;7405074;19;2072;-35
2022/07/26 01:29:09;;;;;;;;;;;;;;;25.28;58.57;100436.84;7404971;19;1815;-35
2022/07/26 01:31:38;;;;;;;;;;;;;;;25.30;58.59;100433.97;7405018;19;1908;-35
2022/07/26 01:34:10;;;;;;;;;;;;;;;25.30;58.85;100432.09;7404985;19;1674;-35
2022/07/26 01:36:54;;;;;;;;;;;;;;;25.32;58.47;100438.16;7404637;19;1709;-36
2022/07/26 01:39:24;;;;;;;;;;;;;;;25.27;58.71;100443.31;7406080;19;1700;-35
2022/07/26 01:41:55;;;;;;;;;;;;;;;25.30;58.62;100425.84;7404310;19;1956;-35
2022/07/26 01:44:30;;;;;;;;;;;;;;;25.32;58.44;100435.44;7404706;19;1913;-35
2022/07/26 01:47:09;;;;;;;;;;;;;;;25.34;58.66;100422.56;7405173;19;1693;-35
2022/07/26 01:49:42;;;;;;;;;;;;;;;25.36;58.88;100431.34;7405015;19;1717;-36
2022/07/26 01:52:15;;;;;;;;;;;;;;;25.29;58.66;100416.91;7403712;19;1716;-35
2022/07/26 01:54:48;;;;;;;;;;;;;;;25.30;58.75;100425.84;7406010;19;1654;-35
2022/07/26 01:57:18;;;;;;;;;;;;;;;25.28;58.82;100417.91;7404383;19;1905;-35
2022/07/26 01:59:48;;;;;;;;;;;;;;;25.29;58.57;100416.06;7404882;19;1948;-35
2022/07/26 02:02:17;;;;;;;;;;;;;;;25.29;58.56;100419.59;7395361;19;3381;-56
2022/07/26 02:05:00;;;;;;;;;;;;;;;25.28;58.70;100431.44;7406294;19;1851;-56
2022/07/26 02:07:46;;;;;;;;;;;;;;;25.31;58.66;100443.78;7403451;19;1559;-62
2022/07/26 02:10:15;;;;;;;;;;;;;;;25.22;58.64;100432.19;7406783;19;1779;-56
2022/07/26 02:12:43;;;;;;;;;;;;;;;25.24;58.64;100423.88;7406670;19;1415;-56
2022/07/26 02:15:13;;;;;;;;;;;;;;;25.25;58.64;100439.94;7407447;19;1370;-62
2022/07/26 02:17:42;;;;;;;;;;;;;;;25.24;58.47;100427.44;7406409;19;1387;-56
2022/07/26 02:20:11;;;;;;;;;;;;;;;25.22;58.67;100436.75;7405437;19;1575;-62
2022/07/26 02:22:40;;;;;;;;;;;;;;;25.20;58.68;100426.91;7407179;19;1410;-62
2022/07/26 02:25:11;;;;;;;;;;;;;;;25.20;58.40;100417.97;7406099;19;1846;-56
2022/07/26 02:27:39;;;;;;;;;;;;;;;25.23;58.58;100433.88;7403775;19;1773;-56
2022/07/26 02:30:08;;;;;;;;;;;;;;;25.18;58.58;100425.44;7405947;19;1426;-56
2022/07/26 02:32:37;;;;;;;;;;;;;;;25.20;58.56;100436.91;7405943;19;1742;-61
2022/07/26 02:35:05;;;;;;;;;;;;;;;25.14;58.57;100426.81;7404932;19;1382;-56
2022/07/26 02:37:34;;;;;;;;;;;;;;;25.19;58.55;100432.53;7404994;19;1485;-61
2022/07/26 02:40:02;;;;;;;;;;;;;;;25.17;58.94;100431.88;7407012;19;1620;-62
2022/07/26 02:42:33;;;;;;;;;;;;;;;25.20;58.48;100436.91;7405379;19;1572;-56
2022/07/26 02:45:02;;;;;;;;;;;;;;;25.17;58.65;100427.31;7404099;19;1842;-61
2022/07/26 02:47:31;;;;;;;;;;;;;;;25.22;58.52;100434.06;7404963;19;1508;-61
2022/07/26 02:50:00;;;;;;;;;;;;;;;25.22;58.84;100439.47;7405140;19;1395;-56
2022/07/26 02:52:29;;;;;;;;;;;;;;;25.15;59.32;100417.69;7401477;19;1453;-60
2022/07/26 02:54:57;;;;;;;;;;;;;;;25.25;58.77;100445.34;7405846;19;1315;-56
2022/07/26 02:57:26;;;;;;;;;;;;;;;25.16;58.60;100435.59;7402635;19;1616;-62
2022/07/26 02:59:57;;;;;;;;;;;;;;;24.99;59.34;100441.16;7404792;19;1489;-56
2022/07/26 03:02:25;;;;;;;;;;;;;;;25.04;58.94;100435.19;7400507;19;1411;-57
2022/07/26 03:04:54;;;;;;;;;;;;;;;25.08;58.77;100432.97;7400316;19;1864;-62
2022/07/26 03:07:22;;;;;;;;;;;;;;;25.11;58.92;100427.19;7397816;19;1463;-56
2022/07/26 03:09:50;;;;;;;;;;;;;;;25.17;58.74;100437.28;7398521;19;1331;-62
2022/07/26 03:12:19;;;;;;;;;;;;;;;25.14;58.87;100432.25;7398907;19;1604;-56
2022/07/26 03:14:47;;;;;;;;;;;;;;;25.13;58.88;100436.81;7398175;19;1383;-63
2022/07/26 03:17:18;;;;;;;;;;;;;;;25.13;58.60;100431.41;7400483;19;1615;-63
2022/07/26 03:19:46;;;;;;;;;;;;;;;25.14;58.90;100454.72;7401046;19;1658;-56
2022/07/26 03:22:15;;;;;;;;;;;;;;;25.14;58.81;100440.34;7404188;19;1494;-62
2022/07/26 03:24:43;;;;;;;;;;;;;;;25.12;59.04;100440.53;7401988;19;1366;-57
2022/07/26 03:27:12;;;;;;;;;;;;;;;25.15;58.88;100451.00;7403464;19;1895;-62
2022/07/26 03:29:40;;;;;;;;;;;;;;;25.16;58.72;100451.84;7404289;19;1375;-62
2022/07/26 03:32:09;;;;;;;;;;;;;;;25.11;58.89;100433.47;7403556;19;1682;-57
2022/07/26 03:34:40;;;;;;;;;;;;;;;25.12;59.00;100445.94;7403874;19;1675;-63
2022/07/26 03:37:08;;;;;;;;;;;;;;;25.12;58.72;100454.06;7403513;19;1603;-56
2022/07/26 03:39:37;;;;;;;;;;;;;;;25.12;59.13;100429.72;7404492;19;1445;-62
2022/07/26 03:42:05;;;;;;;;;;;;;;;25.15;58.75;100442.06;7403309;19;1685;-63
2022/07/26 03:44:33;;;;;;;;;;;;;;;25.16;58.95;100446.41;7403945;19;1879;-62
2022/07/26 03:47:02;;;;;;;;;;;;;;;25.11;58.97;100446.97;7403057;19;1850;-63
2022/07/26 03:49:30;;;;;;;;;;;;;;;25.10;58.86;100434.47;7404061;19;1668;-62
2022/07/26 03:52:01;;;;;;;;;;;;;;;25.14;58.94;100443.06;7403016;19;1675;-56
2022/07/26 03:54:29;;;;;;;;;;;;;;;25.14;58.85;100434.94;7404785;19;1500;-56
2022/07/26 03:56:55;;;;;;;;;;;;;;;25.14;58.94;100441.19;7403088;19;1398;-56
2022/07/26 03:59:24;;;;;;;;;;;;;;;25.15;59.04;100436.63;7404450;19;1546;-62
2022/07/26 04:01:52;;;;;;;;;;;;;;;25.22;59.05;100450.28;7402662;19;1757;-62
2022/07/26 04:04:21;;;;;;;;;;;;;;;25.17;58.91;100434.59;7403305;19;1635;-56
2022/07/26 04:06:49;;;;;;;;;;;;;;;25.15;59.08;100434.75;7401801;19;1865;-56
2022/07/26 04:09:20;;;;;;;;;;;;;;;25.18;59.09;100430.84;7403644;19;1537;-62
2022/07/26 04:11:48;;;;;;;;;;;;;;;25.24;59.16;100443.66;7400598;19;1593;-62
2022/07/26 04:14:17;;;;;;;;;;;;;;;25.25;59.16;100439.94;7402739;19;1367;-57
2022/07/26 04:16:45;;;;;;;;;;;;;;;25.19;59.03;100430.66;7401805;19;1391;-63
2022/07/26 04:19:14;;;;;;;;;;;;;;;25.25;59.22;100420.13;7404098;19;1572;-63
2022/07/26 04:21:42;;;;;;;;;;;;;;;25.28;59.45;100427.91;7404299;19;1508;-56
2022/07/26 04:24:10;;;;;;;;;;;;;;;25.34;59.61;100428.00;7403247;19;1770;-62
2022/07/26 04:26:41;;;;;;;;;;;;;;;25.36;59.10;100427.81;7400729;19;1864;-62
2022/07/26 04:29:11;;;;;;;;;;;;;;;25.36;59.07;100442.19;7400764;19;1652;-56
2022/07/26 04:31:39;;;;;;;;;;;;;;;25.32;59.19;100421.91;7402741;19;1603;-56
2022/07/26 04:34:08;;;;;;;;;;;;;;;25.40;59.24;100432.66;7402500;19;1403;-64
2022/07/26 04:36:37;;;;;;;;;;;;;;;25.38;59.42;100429.28;7403087;19;1480;-57
2022/07/26 04:39:11;;;;;;;;;;;;;;;25.40;59.39;100429.94;7403299;19;1371;-62
2022/07/26 04:41:42;;;;;;;;;;;;;;;25.46;59.40;100422.94;7401083;19;1925;-62
2022/07/26 04:44:10;;;;;;;;;;;;;;;25.50;59.23;100423.44;7402088;19;1686;-56
2022/07/26 04:46:39;;;;;;;;;;;;;;;25.49;59.08;100414.47;7401297;19;1911;-57
2022/07/26 04:49:07;;;;;;;;;;;;;;;25.56;59.13;100420.81;7402265;19;1371;-63
2022/07/26 04:51:35;;;;;;;;;;;;;;;25.56;59.16;100419.97;7408108;19;1473;-63
2022/07/26 04:54:04;;;;;;;;;;;;;;;25.60;58.87;100426.69;7409678;19;1402;-62
2022/07/26 04:56:32;;;;;;;;;;;;;;;25.61;59.12;100409.44;7408950;19;1694;-57
2022/07/26 04:59:03;;;;;;;;;;;;;;;25.64;58.81;100419.03;7408653;19;1367;-57
2022/07/26 05:01:31;;;;;;;;;;;;;;;25.65;58.83;100424.28;7406266;19;1564;-56
2022/07/26 05:04:00;;;;;;;;;;;;;;;25.74;58.69;100417.69;7408354;19;1484;-56
2022/07/26 05:06:28;;;;;;;;;;;;;;;25.69;58.74;100406.63;7407793;19;1867;-62
2022/07/26 05:08:56;;;;;;;;;;;;;;;25.73;58.61;100413.31;7409159;19;1761;-62
2022/07/26 05:11:25;;;;;;;;;;;;;;;25.74;58.71;100406.88;7408807;19;1683;-62
2022/07/26 05:13:53;;;;;;;;;;;;;;;25.77;58.48;100409.22;7409013;19;1911;-56
2022/07/26 05:16:24;;;;;;;;;;;;;;;25.83;58.61;100420.34;7408477;19;1521;-56
2022/07/26 05:18:53;;;;;;;;;;;;;;;25.85;58.55;100427.22;7408594;19;1782;-56
2022/07/26 05:21:21;;;;;;;;;;;;;;;25.87;58.58;100430.59;7408433;19;1580;-56
2022/07/26 05:23:49;;;;;;;;;;;;;;;25.87;58.50;100421.63;7410197;19;1410;-56
2022/07/26 05:26:18;;;;;;;;;;;;;;;25.87;58.13;100410.78;7406736;19;1871;-62
2022/07/26 05:28:46;;;;;;;;;;;;;;;25.89;58.22;100408.75;7407592;19;1395;-63
2022/07/26 05:31:15;;;;;;;;;;;;;;;25.90;58.22;100421.25;7408342;19;1592;-56
2022/07/26 05:33:45;;;;;;;;;;;;;;;25.92;58.23;100419.22;7406695;19;1446;-56
2022/07/26 05:36:14;;;;;;;;;;;;;;;25.91;58.49;100410.25;7408423;19;1370;-64
2022/07/26 05:38:42;;;;;;;;;;;;;;;25.91;58.30;100414.84;7405887;19;1552;-61
2022/07/26 05:41:11;;;;;;;;;;;;;;;25.87;58.93;100410.78;7408846;19;1562;-64
2022/07/26 05:43:39;;;;;;;;;;;;;;;25.89;59.00;100417.69;7406600;19;1419;-64
2022/07/26 05:46:08;;;;;;;;;;;;;;;25.89;59.17;100406.84;7404233;19;1852;-57
2022/07/26 05:48:36;;;;;;;;;;;;;;;25.91;58.78;100412.13;7402790;19;1302;-56
2022/07/26 05:51:07;;;;;;;;;;;;;;;25.87;59.22;100417.03;7406944;19;1273;-56
2022/07/26 05:53:35;;;;;;;;;;;;;;;25.92;59.10;100419.22;7408394;19;1381;-57
2022/07/26 05:56:04;;;;;;;;;;;;;;;25.88;59.09;100417.88;7407850;19;1762;-60
2022/07/26 05:58:32;;;;;;;;;;;;;;;25.93;58.80;100421.72;7408595;19;1630;-56
2022/07/26 06:01:01;;;;;;;;;;;;;;;26.06;59.05;100420.22;7405065;19;1453;-62
2022/07/26 06:03:30;;;;;;;;;;;;;;;26.03;58.99;100416.03;7406222;19;1311;-56
2022/07/26 06:06:00;;;;;;;;;;;;;;;26.05;58.99;100405.00;7409098;19;1842;-60
2022/07/26 06:08:31;;;;;;;;;;;;;;;26.09;59.00;100409.84;7407019;19;1552;-57
2022/07/26 06:11:00;;;;;;;;;;;;;;;26.07;59.58;100408.34;7406401;19;1480;-65
2022/07/26 06:13:28;;;;;;;;;;;;;;;26.06;59.58;100402.06;7406592;19;1704;-61
2022/07/26 06:15:56;;;;;;;;;;;;;;;26.02;59.73;100398.06;7406076;19;1434;-60
2022/07/26 06:18:25;;;;;;;;;;;;;;;26.06;59.69;100398.53;7406733;19;1367;-59
2022/07/26 06:20:54;;;;;;;;;;;;;;;26.11;59.63;100383.38;7405720;19;1663;-59
2022/07/26 06:23:23;;;;;;;;;;;;;;;26.06;59.62;100388.53;7407257;19;1443;-57
2022/07/26 06:25:54;;;;;;;;;;;;;;;26.02;59.53;100380.97;7404735;19;1850;-60
2022/07/26 06:28:22;;;;;;;;;;;;;;;26.05;59.53;100386.03;7405536;19;1781;-60
2022/07/26 06:30:50;;;;;;;;;;;;;;;26.02;59.52;100376.38;7405811;19;1403;-60
2022/07/26 06:33:19;;;;;;;;;;;;;;;26.07;59.41;100373.97;7406299;19;1536;-58
2022/07/26 06:35:47;;;;;;;;;;;;;;;26.06;59.67;100376.84;7407564;19;1627;-57
2022/07/26 06:38:15;;;;;;;;;;;;;;;26.04;59.31;100377.03;7405574;19;1679;-61
2022/07/26 06:40:44;;;;;;;;;;;;;;;25.93;60.60;100372.13;7404685;19;1647;-58
2022/07/26 06:43:15;;;;;;;;;;;;;;;25.06;60.97;100375.50;7404173;19;1337;-56
2022/07/26 06:45:43;;;;;;;;;;;;;;;24.49;60.79;100387.63;7405799;19;1314;-56
2022/07/26 06:48:13;;;;;;;;;;;;;;;24.11;60.10;100390.28;7403144;19;1853;-61
2022/07/26 06:50:41;;;;;;;;;;;;;;;23.99;58.25;100370.94;7403057;19;1304;-56
2022/07/26 06:53:09;;;;;;;;;;;;;;;23.70;57.97;100380.50;7406658;19;1446;-56
2022/07/26 06:55:38;;;;;;;;;;;;;;;23.39;57.40;100377.75;7405410;19;1537;-61
2022/07/26 06:58:06;;;;;;;;;;;;;;;23.47;56.69;100385.84;7405028;19;1890;-61
2022/07/26 07:00:37;;;;;;;;;;;;;;;23.23;56.63;100384.88;7404303;19;1521;-56
2022/07/26 07:03:05;;;;;;;;;;;;;;;23.40;55.47;100380.31;7405259;19;1540;-61
2022/07/26 07:05:34;;;;;;;;;;;;;;;23.31;55.67;100375.94;7406392;19;1403;-61
2022/07/26 07:08:02;;;;;;;;;;;;;;;23.33;55.49;100379.31;7403442;19;1857;-56
2022/07/26 07:10:31;;;;;;;;;;;;;;;23.27;55.16;100382.69;7402687;19;1485;-61
2022/07/26 07:12:59;;;;;;;;;;;;;;;23.27;54.61;100366.50;7405019;19;1366;-61
2022/07/26 07:15:28;;;;;;;;;;;;;;;23.27;54.07;100377.28;7405036;19;1325;-57
2022/07/26 07:17:59;;;;;;;;;;;;;;;23.09;54.06;100379.38;7403140;19;1688;-62
2022/07/26 07:20:28;;;;;;;;;;;;;;;23.23;53.94;100374.09;7405438;19;1404;-56
2022/07/26 07:22:56;;;;;;;;;;;;;;;23.17;54.08;100369.41;7401510;19;1334;-62
2022/07/26 07:25:24;;;;;;;;;;;;;;;23.18;54.10;100384.59;7403355;19;1252;-61
2022/07/26 07:27:53;;;;;;;;;;;;;;;23.48;53.80;100384.00;7403106;19;1892;-56
2022/07/26 07:30:21;;;;;;;;;;;;;;;23.47;53.84;100385.00;7403602;19;1675;-61
2022/07/26 07:32:49;;;;;;;;;;;;;;;23.29;54.36;100383.34;7400595;19;1334;-56
2022/07/26 07:35:21;;;;;;;;;;;;;;;23.14;53.92;100380.56;7402153;19;1478;-61
2022/07/26 07:37:49;;;;;;;;;;;;;;;23.23;54.05;100378.66;7403178;19;1413;-62
2022/07/26 07:40:17;;;;;;;;;;;;;;;23.14;53.66;100383.25;7404648;19;1278;-62
2022/07/26 07:42:45;;;;;;;;;;;;;;;22.97;54.20;100387.78;7401629;19;1436;-56
2022/07/26 07:45:14;;;;;;;;;;;;;;;23.20;53.50;100382.56;7402406;19;1329;-56
2022/07/26 07:47:42;;;;;;;;;;;;;;;23.41;52.84;100370.34;7399395;19;1862;-56
2022/07/26 07:50:11;;;;;;;;;;;;;;;23.69;52.36;100392.31;7401695;19;1664;-61
2022/07/26 07:52:42;;;;;;;;;;;;;;;23.81;52.48;100382.88;7399613;19;1521;-56
2022/07/26 07:55:11;;;;;;;;;;;;;;;23.80;52.18;100373.06;7403961;19;1373;-56
2022/07/26 07:57:39;;;;;;;;;;;;;;;23.83;52.21;100363.75;7400925;19;1300;-57
2022/07/26 08:00:09;;;;;;;;;;;;;;;23.81;52.81;100368.50;7399276;19;1332;-63
2022/07/26 08:02:37;;;;;;;;;;;;;;;24.04;53.26;100360.44;7400095;19;1522;-62
2022/07/26 08:05:06;;;;;;;;;;;;;;;24.12;54.17;100354.97;7402432;19;1337;-56
2022/07/26 08:07:35;;;;;;;;;;;;;;;24.08;54.79;100360.94;7400490;19;1830;-61
2022/07/26 08:10:06;;;;;;;;;;;;;;;24.13;55.05;100359.38;7398408;19;1338;-56
2022/07/26 08:12:35;;;;;;;;;;;;;;;23.96;55.67;100376.72;7400158;19;1800;-56
2022/07/26 08:15:03;;;;;;;;;;;;;;;24.07;55.70;100346.56;7399391;19;1350;-56
2022/07/26 08:17:31;;;;;;;;;;;;;;;24.15;56.46;100353.78;7402139;19;1466;-62
2022/07/26 08:20:00;;;;;;;;;;;;;;;24.22;59.14;100350.19;7401318;19;1286;-61
2022/07/26 08:22:28;;;;;;;;;;;;;;;24.18;59.23;100351.56;7398872;19;1655;-56
2022/07/26 08:24:56;;;;;;;;;;;;;;;24.28;59.44;100332.41;7402384;19;1183;-62
2022/07/26 08:27:27;;;;;;;;;;;;;;;24.36;59.08;100340.44;7398855;19;1871;-56
2022/07/26 08:29:56;;;;;;;;;;;;;;;24.34;59.24;100338.97;7404016;19;1295;-62
2022/07/26 08:32:24;;;;;;;;;;;;;;;24.38;59.02;100330.28;7407850;19;1409;-57
2022/07/26 08:34:52;;;;;;;;;;;;;;;24.34;59.65;100338.97;7406719;19;1178;-61
2022/07/26 08:37:21;;;;;;;;;;;;;;;24.30;59.65;100327.66;7407325;19;1328;-61
2022/07/26 08:39:49;;;;;;;;;;;;;;;24.43;59.23;100327.03;7408297;19;1321;-60
2022/07/26 08:42:18;;;;;;;;;;;;;;;24.50;59.51;100333.44;7407922;19;1378;-59
2022/07/26 08:44:49;;;;;;;;;;;;;;;24.57;59.48;100328.13;7402119;19;1773;-61
2022/07/26 08:47:18;;;;;;;;;;;;;;;24.55;59.54;100325.63;7402041;19;1875;-59
2022/07/26 08:49:47;;;;;;;;;;;;;;;24.60;59.45;100325.06;7404771;19;1390;-58
2022/07/26 08:52:16;;;;;;;;;;;;;;;24.68;59.52;100316.88;7408007;19;1318;-60
2022/07/26 08:54:45;;;;;;;;;;;;;;;24.63;58.94;100324.72;7402527;19;1272;-56
2022/07/26 08:57:13;;;;;;;;;;;;;;;24.44;58.95;100322.50;7406479;19;1335;-59
2022/07/26 08:59:42;;;;;;;;;;;;;;;24.44;58.75;100326.03;7407161;19;1391;-55
2022/07/26 09:02:14;;;;;;;;;;;;;;;24.49;58.98;100323.63;7401029;19;1466;-55
2022/07/26 09:04:45;;;;;;;;;;;;;;;24.65;58.10;100319.97;7404716;19;1208;-59
2022/07/26 09:07:14;;;;;;;;;;;;;;;24.39;58.85;100323.88;7405563;19;1849;-60
2022/07/26 09:09:57;;;;;;;;;;;;;;;24.34;58.59;100320.03;7404955;19;1349;-60
2022/07/26 09:12:26;;;;;;;;;;;;;;;24.49;58.09;100309.25;7407378;19;1306;-65
2022/07/26 09:14:55;;;;;;;;;;;;;;;24.54;58.19;100315.84;7398756;19;1417;-56
2022/07/26 09:17:27;;;;;;;;;;;;;;;24.58;58.43;100319.00;7397425;19;1485;-58
2022/07/26 09:20:06;;;;;;;;;;;;;;;24.58;57.83;100316.31;7399668;19;1427;-60
2022/07/26 09:22:34;;;;;;;;;;;;;;;24.58;57.81;100316.31;7403164;19;1326;-60
2022/07/26 09:25:03;;;;;;;;;;;;;;;24.65;57.96;100300.19;7405909;19;1682;-58
2022/07/26 09:27:36;;;;;;;;;;;;;;;24.55;58.27;100309.41;7406310;19;1857;-60
2022/07/26 09:30:07;;;;;;;;;;;;;;;24.63;57.67;100310.34;7406972;19;1410;-60
2022/07/26 09:32:38;;;;;;;;;;;;;;;24.71;57.33;100313.81;7405436;19;1619;-56
2022/07/26 09:35:15;;;;;;;;;;;;;;;24.63;57.36;100300.38;7405100;19;1413;-57
2022/07/26 09:37:45;;;;;;;;;;;;;;;24.50;57.71;100301.00;7403587;19;1773;-61
2022/07/26 09:40:14;;;;;;;;;;;;;;;24.52;57.82;100304.34;7408700;19;1564;-55
2022/07/26 09:42:55;;;;;;;;;;;;;;;24.41;57.73;100293.94;7407107;19;1536;-56
2022/07/26 09:45:23;;;;;;;;;;;;;;;24.42;57.75;100292.94;7406668;19;1321;-60
2022/07/26 09:47:54;;;;;;;;;;;;;;;24.31;57.58;100290.66;7406328;19;1849;-57
2022/07/26 09:50:24;;;;;;;;;;;;;;;24.43;57.30;100289.19;7405617;19;1197;-56
2022/07/26 09:53:08;;;;;;;;;;;;;;;24.11;57.70;100274.94;7404104;19;1331;-56
2022/07/26 09:55:38;;;;;;;;;;;;;;;24.13;57.32;100291.84;7406377;19;1383;-60
2022/07/26 09:58:06;;;;;;;;;;;;;;;24.14;57.32;100282.69;7406089;19;1317;-56
2022/07/26 10:00:35;;;;;;;;;;;;;;;24.09;57.03;100278.88;7404840;19;1354;-61
2022/07/26 10:03:06;;;;;;;;;;;;;;;23.96;57.19;100274.06;7405173;19;1382;-57
2022/07/26 10:05:34;;;;;;;;;;;;;;;24.04;57.02;100274.00;7407675;19;1331;-60
2022/07/26 10:08:03;;;;;;;;;;;;;;;23.88;56.78;100258.78;7405975;19;1850;-56
2022/07/26 10:10:33;;;;;;;;;;;;;;;23.97;56.51;100270.34;7407526;19;1350;-60
2022/07/26 10:13:02;;;;;;;;;;;;;;;23.91;56.58;100269.19;7408245;19;1101;-56
2022/07/26 10:15:41;;;;;;;;;;;;;;;23.98;56.67;100270.16;7405197;19;1334;-61
2022/07/26 10:18:13;;;;;;;;;;;;;;;23.96;56.11;100261.41;7406853;19;1315;-56
2022/07/26 10:20:52;;;;;;;;;;;;;;;23.99;56.03;100265.59;7406820;19;1362;-61
2022/07/26 10:23:35;;;;;;;;;;;;;;;23.95;56.01;100254.31;7407587;19;1433;-56
2022/07/26 10:26:04;;;;;;;;;;;;;;;23.90;56.36;100267.53;7406480;19;1406;-60
2022/07/26 10:28:34;;;;;;;;;;;;;;;23.98;56.11;100261.22;7405117;19;1863;-60
2022/07/26 10:31:28;;;;;;;;;;;;;;;24.01;55.66;100255.44;7407233;19;1667;-60
2022/07/26 10:33:59;;;;;;;;;;;;;;;23.97;55.55;100249.59;7405399;19;2182;-56
2022/07/26 10:36:38;;;;;;;;;;;;;;;23.92;55.55;100237.66;7404581;19;1355;-60
2022/07/26 10:39:07;;;;;;;;;;;;;;;24.06;55.06;100242.25;7406773;19;1544;-60
2022/07/26 10:41:38;;;;;;;;;;;;;;;23.94;55.07;100241.84;7404191;19;1224;-56
2022/07/26 10:44:20;;;;;;;;;;;;;;;23.80;55.26;100248.88;7405881;19;1627;-56
2022/07/26 10:47:00;;;;;;;;;;;;;;;23.91;54.87;100236.78;7406085;19;1671;-56
2022/07/26 10:49:35;;;;;;;;;;;;;;;23.80;54.95;100238.06;7402422;19;1845;-56
2022/07/26 10:52:11;;;;;;;;;;;;;;;23.80;55.06;100234.53;7406139;19;1536;-56
2022/07/26 10:54:54;;;;;;;;;;;;;;;23.67;55.47;100226.97;7406299;19;1622;-57
2022/07/26 10:57:23;;;;;;;;;;;;;;;23.76;54.77;100236.72;7405443;19;1520;-56
2022/07/26 10:59:51;;;;;;;;;;;;;;;23.73;55.39;100225.44;7404532;19;1316;-56
2022/07/26 11:02:20;;;;;;;;;;;;;;;23.76;56.06;100209.72;7400527;19;1434;-61
2022/07/26 11:04:51;;;;;;;;;;;;;;;23.94;55.91;100230.22;7406085;19;1350;-56
2022/07/26 11:07:20;;;;;;;;;;;;;;;23.93;56.06;100228.50;7405622;19;1376;-56
2022/07/26 11:09:48;;;;;;;;;;;;;;;23.96;56.38;100217.38;7406168;19;1346;-61
2022/07/26 11:12:17;;;;;;;;;;;;;;;24.08;56.28;100210.50;7405384;19;1329;-60
2022/07/26 11:14:45;;;;;;;;;;;;;;;24.04;56.26;100213.75;7403581;19;1330;-60
2022/07/26 11:17:24;;;;;;;;;;;;;;;24.07;56.52;100225.00;7404919;19;1303;-56
2022/07/26 11:19:56;;;;;;;;;;;;;;;24.14;56.44;100212.47;7405863;19;1500;-58
2022/07/26 11:22:24;;;;;;;;;;;;;;;24.07;57.42;100205.28;7404559;19;1895;-58
2022/07/26 11:24:53;;;;;;;;;;;;;;;24.50;56.40;100203.69;7403256;19;1425;-58
2022/07/26 11:27:21;;;;;;;;;;;;;;;24.73;55.53;100194.66;7403048;19;1440;-58
2022/07/26 11:29:49;;;;;;;;;;;;;;;24.88;55.23;100211.69;7401688;19;1849;-58
2022/07/26 11:32:19;;;;;;;;;;;;;;;24.93;55.11;100197.59;7403933;19;1303;-58
2022/07/26 11:34:47;;;;;;;;;;;;;;;25.02;54.96;100212.72;7403806;19;1413;-60
2022/07/26 11:37:18;;;;;;;;;;;;;;;25.06;55.32;100202.38;7404147;19;1772;-60
2022/07/26 11:39:48;;;;;;;;;;;;;;;25.05;55.10;100189.84;7405546;19;1374;-60
2022/07/26 11:42:18;;;;;;;;;;;;;;;25.06;55.04;100199.66;7404206;19;1374;-60
2022/07/26 11:44:47;;;;;;;;;;;;;;;25.10;55.09;100182.00;7404637;19;1531;-60
2022/07/26 11:47:18;;;;;;;;;;;;;;;25.14;55.25;100178.72;7404449;19;1395;-60
2022/07/26 11:49:46;;;;;;;;;;;;;;;25.18;55.26;100173.78;7399845;19;1861;-58
2022/07/26 11:52:18;;;;;;;;;;;;;;;25.19;55.22;100170.06;7404100;19;1370;-59
2022/07/26 11:54:47;;;;;;;;;;;;;;;25.23;55.36;100168.69;7404364;19;1382;-56
2022/07/26 11:57:16;;;;;;;;;;;;;;;25.28;55.52;100168.94;7403958;19;1444;-56
2022/07/26 11:59:46;;;;;;;;;;;;;;;25.28;55.28;100168.94;7404461;19;1435;-57
2022/07/26 12:02:15;;;;;;;;;;;;;;;25.31;55.33;100156.91;7408981;19;1386;-58
2022/07/26 12:04:44;;;;;;;;;;;;;;;25.29;55.63;100159.78;7412417;19;1321;-58
2022/07/26 12:07:13;;;;;;;;;;;;;;;25.37;55.48;100139.88;7411152;19;1349;-58
2022/07/26 12:09:48;;;;;;;;;;;;;;;25.41;55.57;100149.28;7409389;19;1856;-58
2022/07/26 12:12:21;;;;;;;;;;;;;;;25.38;55.58;100149.66;7411554;19;1462;-58
2022/07/26 12:14:57;;;;;;;;;;;;;;;25.43;55.63;100146.38;7411808;19;1640;-58
2022/07/26 12:17:25;;;;;;;;;;;;;;;25.43;55.67;100143.66;7412482;19;1623;-59
2022/07/26 12:19:54;;;;;;;;;;;;;;;25.44;55.64;100140.78;7411155;19;1639;-58
2022/07/26 12:22:23;;;;;;;;;;;;;;;25.48;55.61;100141.22;7406270;19;1500;-58
2022/07/26 12:25:00;;;;;;;;;;;;;;;25.52;55.69;100137.94;7410802;19;1775;-56
2022/07/26 12:27:29;;;;;;;;;;;;;;;25.51;56.21;100132.75;7408683;19;1355;-59
2022/07/26 12:30:15;;;;;;;;;;;;;;;25.50;55.90;100112.94;7407625;19;1860;-60
2022/07/26 12:32:44;;;;;;;;;;;;;;;25.51;56.20;100113.78;7410791;19;1618;-59
2022/07/26 12:35:14;;;;;;;;;;;;;;;25.50;56.11;100099.38;7411480;19;1863;-59
2022/07/26 12:37:52;;;;;;;;;;;;;;;25.54;56.26;100103.38;7408623;19;1734;-59
2022/07/26 12:40:24;;;;;;;;;;;;;;;25.56;56.77;100120.25;7410810;19;1500;-59
2022/07/26 12:42:56;;;;;;;;;;;;;;;25.52;56.33;100093.78;7410447;19;1362;-57
2022/07/26 12:45:26;;;;;;;;;;;;;;;25.56;56.37;100105.91;7407952;19;1553;-60
2022/07/26 12:47:55;;;;;;;;;;;;;;;25.58;56.79;100111.97;7409731;19;1859;-57
2022/07/26 12:50:25;;;;;;;;;;;;;;;25.19;57.85;100105.94;7409279;19;1333;-56
2022/07/26 12:52:54;;;;;;;;;;;;;;;24.92;57.32;100096.69;7410920;19;1102;-56
2022/07/26 12:55:25;;;;;;;;;;;;;;;24.65;57.57;100102.81;7409966;19;1750;-63
2022/07/26 12:57:53;;;;;;;;;;;;;;;24.38;57.43;100105.16;7408220;19;1769;-59
2022/07/26 13:00:22;;;;;;;;;;;;;;;24.44;56.92;100103.56;7408605;19;1668;-55
2022/07/26 13:02:53;;;;;;;;;;;;;;;24.45;56.85;100103.38;7405392;19;1468;-55
2022/07/26 13:05:21;;;;;;;;;;;;;;;24.42;56.31;100101.06;7409195;19;1429;-55
2022/07/26 13:07:50;;;;;;;;;;;;;;;24.32;56.56;100092.41;7408765;19;1442;-52